createdAt,value
2022-12-12T00:00:45.967Z,38.72
2022-12-12T00:03:15.925Z,37.15
2022-12-12T00:05:45.801Z,36.60
2022-12-12T00:08:15.579Z,36.85
2022-12-12T00:10:45.518Z,36.72
2022-12-12T00:13:15.351Z,37.55
2022-12-12T00:15:47.760Z,36.63
2022-12-12T00:18:17.578Z,37.75
2022-12-12T00:20:47.323Z,36.53
2022-12-12T00:23:17.050Z,36.75
2022-12-12T00:25:46.839Z,36.53
2022-12-12T00:28:16.596Z,34.58
2022-12-12T00:30:48.997Z,36.53
2022-12-12T00:33:18.726Z,38.45
2022-12-12T00:35:51.902Z,37.92
2022-12-12T00:38:22.360Z,37.13
2022-12-12T00:40:53.221Z,35.60
2022-12-12T00:43:22.954Z,38.10
2022-12-12T00:45:55.764Z,34.70
2022-12-12T00:48:25.506Z,33.63
2022-12-12T00:50:55.365Z,35.83
2022-12-12T00:53:25.644Z,35.25
2022-12-12T00:55:59.490Z,36.50
2022-12-12T00:58:29.666Z,35.38
2022-12-12T01:01:06.565Z,36.33
2022-12-12T01:03:36.873Z,38.03
2022-12-12T01:06:07.468Z,35.58
2022-12-12T01:08:37.486Z,35.05
2022-12-12T01:11:07.692Z,35.53
2022-12-12T01:13:37.797Z,33.55
2022-12-12T01:16:10.853Z,35.22
2022-12-12T01:18:42.007Z,34.20
2022-12-12T01:21:12.393Z,33.25
2022-12-12T01:23:42.720Z,33.08
2022-12-12T01:26:15.289Z,33.75
2022-12-12T01:28:45.972Z,35.25
2022-12-12T01:31:18.541Z,34.20
2022-12-12T01:33:48.555Z,33.65
2022-12-12T01:36:20.829Z,34.95
2022-12-12T01:38:52.896Z,33.47
2022-12-12T01:41:24.136Z,31.88
2022-12-12T01:43:54.039Z,32.45
2022-12-12T01:46:47.776Z,33.17
2022-12-12T01:49:25.544Z,32.28
2022-12-12T01:51:59.519Z,32.05
2022-12-12T01:54:33.640Z,31.77
2022-12-12T01:57:07.888Z,31.58
2022-12-12T01:59:39.525Z,32.13
2022-12-12T02:02:12.721Z,31.38
2022-12-12T02:04:43.670Z,32.50
2022-12-12T02:07:13.482Z,32.70
2022-12-12T02:09:43.756Z,30.80
2022-12-12T02:12:15.805Z,33.47
2022-12-12T02:14:51.811Z,32.25
2022-12-12T02:17:37.954Z,31.15
2022-12-12T02:20:34.028Z,31.08
2022-12-12T02:23:40.772Z,32.63
2022-12-12T02:26:41.242Z,33.83
2022-12-12T02:29:38.996Z,32.60
2022-12-12T02:32:17.332Z,30.95
2022-12-12T02:34:53.004Z,30.50
2022-12-12T02:37:28.494Z,32.47
2022-12-12T02:40:07.216Z,33.78
2022-12-12T02:42:44.757Z,32.22
2022-12-12T02:45:19.621Z,32.58
2022-12-12T02:47:57.152Z,33.72
2022-12-12T02:50:30.834Z,30.73
2022-12-12T02:53:02.777Z,31.65
2022-12-12T02:55:36.270Z,33.38
2022-12-12T02:58:07.820Z,29.30
2022-12-12T03:00:46.454Z,31.65
2022-12-12T03:03:50.044Z,31.95
2022-12-12T03:06:45.841Z,31.25
2022-12-12T03:09:23.714Z,30.42
2022-12-12T03:12:01.969Z,32.50
2022-12-12T03:14:44.873Z,31.58
2022-12-12T03:17:23.410Z,33.63
2022-12-12T03:20:02.545Z,30.38
2022-12-12T03:22:39.565Z,30.27
2022-12-12T03:25:15.408Z,31.75
2022-12-12T03:27:52.218Z,30.02
2022-12-12T03:30:23.781Z,32.20
2022-12-12T03:33:01.389Z,30.52
2022-12-12T03:35:39.397Z,29.55
2022-12-12T03:38:15.340Z,30.90
2022-12-12T03:40:50.477Z,31.50
2022-12-12T03:43:24.404Z,29.83
2022-12-12T03:46:00.322Z,30.70
2022-12-12T03:48:32.309Z,30.05
2022-12-12T03:51:07.850Z,31.05
2022-12-12T03:53:43.416Z,30.88
2022-12-12T03:56:20.333Z,30.08
2022-12-12T03:58:54.390Z,29.55
2022-12-12T04:01:30.574Z,28.83
2022-12-12T04:04:05.866Z,30.35
2022-12-12T04:06:41.613Z,30.58
2022-12-12T04:09:27.673Z,28.80
2022-12-12T04:12:18.488Z,28.50
2022-12-12T04:15:20.748Z,28.40
2022-12-12T04:18:01.373Z,30.08
2022-12-12T04:20:49.224Z,29.17
2022-12-12T04:23:38.292Z,30.17
2022-12-12T04:26:28.996Z,30.08
2022-12-12T04:29:09.545Z,29.52
2022-12-12T04:31:43.570Z,28.52
2022-12-12T04:34:16.979Z,29.08
2022-12-12T04:36:50.458Z,28.63
2022-12-12T04:39:24.247Z,27.88
2022-12-12T04:41:57.538Z,29.30
2022-12-12T04:44:30.437Z,29.13
2022-12-12T04:47:02.427Z,26.55
2022-12-12T04:49:36.126Z,27.45
2022-12-12T04:52:11.009Z,25.15
2022-12-12T04:54:48.867Z,27.00
2022-12-12T04:57:23.195Z,27.45
2022-12-12T04:59:53.283Z,27.00
2022-12-12T05:02:32.902Z,26.48
2022-12-12T05:05:07.165Z,27.25
2022-12-12T05:07:40.699Z,26.58
2022-12-12T05:10:15.974Z,27.95
2022-12-12T05:12:48.013Z,28.30
2022-12-12T05:15:19.250Z,27.95
2022-12-12T05:17:52.248Z,27.02
2022-12-12T05:20:22.061Z,27.38
2022-12-12T05:22:51.843Z,26.02
2022-12-12T05:25:24.271Z,23.98
2022-12-12T05:27:54.060Z,24.65
2022-12-12T05:30:24.765Z,27.05
2022-12-12T05:32:54.966Z,27.15
2022-12-12T05:35:24.877Z,27.60
2022-12-12T05:37:54.669Z,30.45
2022-12-12T05:40:27.029Z,31.08
2022-12-12T05:42:56.864Z,30.25
2022-12-12T05:45:26.882Z,32.10
2022-12-12T05:47:56.651Z,32.72
2022-12-12T05:50:26.424Z,33.75
2022-12-12T05:52:56.185Z,35.70
2022-12-12T05:55:28.499Z,33.50
2022-12-12T05:57:58.251Z,32.53
2022-12-12T06:00:28.010Z,32.05
2022-12-12T06:02:57.832Z,33.10
2022-12-12T06:05:27.617Z,31.90
2022-12-12T06:07:57.414Z,28.95
2022-12-12T06:10:30.836Z,30.17
2022-12-12T06:13:00.602Z,28.40
2022-12-12T06:15:30.498Z,26.52
2022-12-12T06:18:01.086Z,29.17
2022-12-12T06:20:32.616Z,28.58
2022-12-12T06:23:03.538Z,28.35
2022-12-12T06:25:36.281Z,26.83
2022-12-12T06:28:06.112Z,28.92
2022-12-12T06:30:36.952Z,28.58
2022-12-12T06:33:07.054Z,28.98
2022-12-12T06:35:36.794Z,28.40
2022-12-12T06:38:06.640Z,28.40
2022-12-12T06:40:42.102Z,31.20
2022-12-12T06:43:11.900Z,29.45
2022-12-12T06:45:41.726Z,30.02
2022-12-12T06:48:12.543Z,29.90
2022-12-12T06:50:43.014Z,29.80
2022-12-12T06:53:13.787Z,29.33
2022-12-12T06:55:48.951Z,31.05
2022-12-12T06:58:18.871Z,29.83
2022-12-12T07:00:53.692Z,29.65
2022-12-12T07:03:23.550Z,32.10
2022-12-12T07:05:53.447Z,30.45
2022-12-12T07:08:23.286Z,29.17
2022-12-12T07:10:55.730Z,31.58
2022-12-12T07:13:25.976Z,36.45
2022-12-12T07:15:58.966Z,34.70
2022-12-12T07:18:29.058Z,34.35
2022-12-12T07:20:58.870Z,34.40
2022-12-12T07:23:28.790Z,33.15
2022-12-12T07:26:01.281Z,32.65
2022-12-12T07:28:31.117Z,35.50
2022-12-12T07:31:01.389Z,35.90
2022-12-12T07:33:42.660Z,35.55
2022-12-12T07:36:13.586Z,33.80
2022-12-12T07:38:43.887Z,34.97
2022-12-12T07:41:18.887Z,31.75
2022-12-12T07:43:53.080Z,33.13
2022-12-12T07:46:25.943Z,32.83
2022-12-12T07:48:56.801Z,32.17
2022-12-12T07:51:26.653Z,30.75
2022-12-12T07:53:57.448Z,31.15
2022-12-12T07:56:29.923Z,28.73
2022-12-12T07:58:59.799Z,27.17
2022-12-12T08:01:30.872Z,27.10
2022-12-12T08:04:01.988Z,29.45
2022-12-12T08:06:32.905Z,29.05
2022-12-12T08:09:02.678Z,25.30
2022-12-12T08:11:35.077Z,22.52
2022-12-12T08:14:11.069Z,23.02
2022-12-12T08:16:42.724Z,21.17
2022-12-12T08:19:12.597Z,21.70
2022-12-12T08:21:42.381Z,21.60
2022-12-12T08:24:15.420Z,21.90
2022-12-12T08:26:48.157Z,21.35
2022-12-12T08:29:17.971Z,21.20
2022-12-12T08:31:48.914Z,22.70
2022-12-12T08:34:19.769Z,24.15
2022-12-12T08:36:49.665Z,27.33
2022-12-12T08:39:19.527Z,27.80
2022-12-12T08:41:52.182Z,28.27
2022-12-12T08:44:23.301Z,27.75
2022-12-12T08:46:53.192Z,25.98
2022-12-12T08:49:23.048Z,23.95
2022-12-12T08:51:52.908Z,22.70
2022-12-12T08:54:22.843Z,24.58
2022-12-12T08:56:55.273Z,24.80
2022-12-12T08:59:25.387Z,21.00
2022-12-12T09:01:55.324Z,21.10
2022-12-12T09:04:25.618Z,18.55
2022-12-12T09:06:56.142Z,19.40
2022-12-12T09:09:25.920Z,20.23
2022-12-12T09:11:58.382Z,19.27
2022-12-12T09:14:28.246Z,21.30
2022-12-12T09:16:58.033Z,21.05
2022-12-12T09:19:28.015Z,22.67
2022-12-12T09:21:57.863Z,22.50
2022-12-12T09:24:27.862Z,21.25
2022-12-12T09:27:00.356Z,24.02
2022-12-12T09:29:30.664Z,22.30
2022-12-12T09:32:06.331Z,24.40
2022-12-12T09:34:36.194Z,24.98
2022-12-12T09:37:06.082Z,25.58
2022-12-12T09:39:35.883Z,23.60
2022-12-12T09:42:20.330Z,23.38
2022-12-12T09:44:51.266Z,18.88
2022-12-12T09:47:27.529Z,19.23
2022-12-12T09:49:59.313Z,18.15
2022-12-12T09:52:35.689Z,18.67
2022-12-12T09:55:24.109Z,18.25
2022-12-12T09:58:02.444Z,18.55
2022-12-12T10:00:35.805Z,18.38
2022-12-12T10:03:18.363Z,18.38
2022-12-12T10:06:13.851Z,18.27
2022-12-12T10:08:56.060Z,19.45
2022-12-12T10:11:44.457Z,22.60
2022-12-12T10:14:18.812Z,23.13
2022-12-12T10:16:52.424Z,21.17
2022-12-12T10:19:31.854Z,21.98
2022-12-12T10:22:07.328Z,23.35
2022-12-12T10:24:42.865Z,21.90
2022-12-12T10:27:14.801Z,21.60
2022-12-12T10:29:50.673Z,20.52
2022-12-12T10:32:34.038Z,22.27
2022-12-12T10:35:24.542Z,21.45
2022-12-12T10:38:08.677Z,21.63
2022-12-12T10:40:49.810Z,20.48
2022-12-12T10:43:25.525Z,22.05
2022-12-12T10:46:19.199Z,20.75
2022-12-12T10:48:51.329Z,20.00
2022-12-12T10:51:25.696Z,20.13
2022-12-12T10:53:55.610Z,21.20
2022-12-12T10:56:29.018Z,20.65
2022-12-12T10:59:01.460Z,19.88
2022-12-12T11:02:08.390Z,20.60
2022-12-12T11:04:30.046Z,18.90
2022-12-12T11:07:00.248Z,19.88
2022-12-12T11:09:31.519Z,19.10
2022-12-12T11:12:03.486Z,17.35
2022-12-12T11:14:37.466Z,19.30
2022-12-12T11:17:22.946Z,19.80
2022-12-12T11:19:55.632Z,19.05
2022-12-12T11:22:25.714Z,21.23
2022-12-12T11:24:57.354Z,18.20
2022-12-12T11:27:31.380Z,19.83
2022-12-12T11:30:03.759Z,19.30
2022-12-12T11:32:44.013Z,19.00
2022-12-12T11:35:27.158Z,18.85
2022-12-12T11:38:02.263Z,18.60
2022-12-12T11:40:34.840Z,19.80
2022-12-12T11:43:19.440Z,20.40
2022-12-12T11:46:05.001Z,18.27
2022-12-12T11:48:44.616Z,19.98
2022-12-12T11:51:14.605Z,18.50
2022-12-12T11:53:48.266Z,18.85
2022-12-12T11:56:33.201Z,17.98
2022-12-12T11:59:21.368Z,18.48
2022-12-12T12:02:02.668Z,17.17
2022-12-12T12:04:52.744Z,17.60
2022-12-12T12:07:42.046Z,16.52
2022-12-12T12:10:23.933Z,18.25
2022-12-12T12:13:02.529Z,15.63
2022-12-12T12:15:42.635Z,18.20
2022-12-12T12:18:36.996Z,15.82
2022-12-12T12:21:29.383Z,15.70
2022-12-12T12:24:11.481Z,18.80
2022-12-12T12:26:50.477Z,16.70
2022-12-12T12:29:35.463Z,18.10
2022-12-12T12:32:14.882Z,17.20
2022-12-12T12:34:54.980Z,16.60
2022-12-12T12:37:41.917Z,15.18
2022-12-12T12:40:36.401Z,15.38
2022-12-12T12:43:33.962Z,15.67
2022-12-12T12:46:13.765Z,15.65
2022-12-12T12:48:47.320Z,18.20
2022-12-12T12:51:22.093Z,17.65
2022-12-12T12:54:00.956Z,16.42
2022-12-12T12:56:33.627Z,18.33
2022-12-12T12:59:07.484Z,18.40
2022-12-12T13:01:42.951Z,18.88
2022-12-12T13:04:19.688Z,18.35
2022-12-12T13:06:54.328Z,21.55
2022-12-12T13:09:41.118Z,21.83
2022-12-12T13:12:18.084Z,20.13
2022-12-12T13:14:53.809Z,18.57
2022-12-12T13:17:28.057Z,19.45
2022-12-12T13:20:00.382Z,18.77
2022-12-12T13:22:49.852Z,18.20
2022-12-12T13:25:32.447Z,17.10
2022-12-12T13:28:06.082Z,17.37
2022-12-12T13:30:51.162Z,17.73
2022-12-12T13:33:36.498Z,17.65
2022-12-12T13:36:15.382Z,18.70
2022-12-12T13:38:50.681Z,19.40
2022-12-12T13:41:23.193Z,18.80
2022-12-12T13:43:59.247Z,18.42
2022-12-12T13:46:52.678Z,18.73
2022-12-12T13:49:37.301Z,18.17
2022-12-12T13:52:26.511Z,18.80
2022-12-12T13:55:13.113Z,18.10
2022-12-12T13:58:19.569Z,18.58
2022-12-12T14:00:50.216Z,18.27
2022-12-12T14:03:32.951Z,18.13
2022-12-12T14:06:13.567Z,19.17
2022-12-12T14:08:52.417Z,17.77
2022-12-12T14:11:32.398Z,20.43
2022-12-12T14:14:23.206Z,19.77
2022-12-12T14:16:57.883Z,19.87
2022-12-12T14:19:33.101Z,18.02
2022-12-12T14:22:04.081Z,20.38
2022-12-12T14:25:05.386Z,19.40
2022-12-12T14:28:13.736Z,23.00
2022-12-12T14:30:51.800Z,21.33
2022-12-12T14:33:46.258Z,22.63
2022-12-12T14:36:39.235Z,26.02
2022-12-12T14:39:20.564Z,26.40
2022-12-12T14:41:51.225Z,31.40
2022-12-12T14:44:36.656Z,22.85
2022-12-12T14:47:19.019Z,22.00
2022-12-12T14:49:48.806Z,21.65
2022-12-12T14:52:23.710Z,21.50
2022-12-12T14:54:54.665Z,22.30
2022-12-12T14:57:27.401Z,24.57
2022-12-12T14:59:57.363Z,22.15
2022-12-12T15:02:38.988Z,23.50
2022-12-12T15:05:10.843Z,19.40
2022-12-12T15:07:41.963Z,21.27
2022-12-12T15:10:25.802Z,21.30
2022-12-12T15:12:55.573Z,21.63
2022-12-12T15:15:28.868Z,22.02
2022-12-12T15:18:04.094Z,22.88
2022-12-12T15:20:35.154Z,24.13
2022-12-12T15:23:07.164Z,21.85
2022-12-12T15:25:46.019Z,22.55
2022-12-12T15:28:18.416Z,21.90
2022-12-12T15:30:52.424Z,21.17
2022-12-12T15:33:26.333Z,22.75
2022-12-12T15:36:02.132Z,24.85
2022-12-12T15:38:32.683Z,23.52
2022-12-12T15:41:12.772Z,24.33
2022-12-12T15:43:45.044Z,24.80
2022-12-12T15:46:17.946Z,25.23
2022-12-12T15:48:52.233Z,26.20
2022-12-12T15:51:25.374Z,26.42
2022-12-12T15:53:56.792Z,24.45
2022-12-12T15:56:30.594Z,22.40
2022-12-12T15:59:17.945Z,24.23
2022-12-12T16:01:48.765Z,24.97
2022-12-12T16:04:28.613Z,23.60
2022-12-12T16:07:17.255Z,22.50
2022-12-12T16:10:01.030Z,22.60
2022-12-12T16:12:58.620Z,27.20
2022-12-12T16:15:46.163Z,28.83
2022-12-12T16:18:23.780Z,26.58
2022-12-12T16:20:58.277Z,24.83
2022-12-12T16:23:33.471Z,24.45
2022-12-12T16:26:03.296Z,25.23
2022-12-12T16:28:34.089Z,26.42
2022-12-12T16:31:07.592Z,24.55
2022-12-12T16:33:38.774Z,23.55
2022-12-12T16:36:15.007Z,24.80
2022-12-12T16:38:46.142Z,27.30
2022-12-12T16:41:19.815Z,25.10
2022-12-12T16:43:49.769Z,25.65
2022-12-12T16:46:22.167Z,25.23
2022-12-12T16:48:52.757Z,24.50
2022-12-12T16:51:30.631Z,24.02
2022-12-12T16:54:00.715Z,24.00
2022-12-12T16:56:30.707Z,23.17
2022-12-12T16:59:00.458Z,23.85
2022-12-12T17:01:33.397Z,23.63
2022-12-12T17:04:07.425Z,23.27
2022-12-12T17:06:39.828Z,22.13
2022-12-12T17:09:10.569Z,23.42
2022-12-12T17:11:41.000Z,22.17
2022-12-12T17:14:18.698Z,23.52
2022-12-12T17:16:48.597Z,22.95
2022-12-12T17:19:18.786Z,22.13
2022-12-12T17:21:51.306Z,25.05
2022-12-12T17:24:21.137Z,24.85
2022-12-12T17:26:51.275Z,26.48
2022-12-12T17:29:21.149Z,28.20
2022-12-12T17:31:52.321Z,26.70
2022-12-12T17:34:22.229Z,24.15
2022-12-12T17:36:54.622Z,24.42
2022-12-12T17:39:24.743Z,23.38
2022-12-12T17:41:55.883Z,23.25
2022-12-12T17:44:26.077Z,23.95
2022-12-12T17:46:55.886Z,25.30
2022-12-12T17:49:25.726Z,24.40
2022-12-12T17:51:59.163Z,23.73
2022-12-12T17:54:28.884Z,22.08
2022-12-12T17:56:59.661Z,22.52
2022-12-12T17:59:29.494Z,22.40
2022-12-12T18:01:59.305Z,22.05
2022-12-12T18:04:30.162Z,23.20
2022-12-12T18:07:02.526Z,26.70
2022-12-12T18:09:35.585Z,28.40
2022-12-12T18:12:05.517Z,25.38
2022-12-12T18:14:35.369Z,25.20
2022-12-12T18:17:06.592Z,27.40
2022-12-12T18:19:36.347Z,24.00
2022-12-12T18:22:10.740Z,26.10
2022-12-12T18:24:40.904Z,23.05
2022-12-12T18:27:10.728Z,21.65
2022-12-12T18:29:40.987Z,20.38
2022-12-12T18:32:10.764Z,19.50
2022-12-12T18:34:42.639Z,20.65
2022-12-12T18:37:16.470Z,18.63
2022-12-12T18:39:46.328Z,19.23
2022-12-12T18:42:16.193Z,18.23
2022-12-12T18:44:46.985Z,20.10
2022-12-12T18:47:16.805Z,21.42
2022-12-12T18:49:46.594Z,22.42
2022-12-12T18:52:18.982Z,22.50
2022-12-12T18:54:48.818Z,22.30
2022-12-12T18:57:18.597Z,22.25
2022-12-12T18:59:48.408Z,23.75
2022-12-12T19:02:19.502Z,21.83
2022-12-12T19:04:50.288Z,22.65
2022-12-12T19:07:23.621Z,23.25
2022-12-12T19:09:53.458Z,24.27
2022-12-12T19:12:23.174Z,23.90
2022-12-12T19:17:46.396Z,22.35
2022-12-12T19:20:16.587Z,21.02
2022-12-12T19:22:54.151Z,22.77
2022-12-12T19:25:23.895Z,22.77
2022-12-12T19:27:57.542Z,21.38
2022-12-12T19:30:29.339Z,22.58
2022-12-12T19:32:59.271Z,20.73
2022-12-12T19:35:29.049Z,21.15
2022-12-12T19:38:01.436Z,20.38
2022-12-12T19:40:31.195Z,22.20
2022-12-12T19:43:01.010Z,22.52
2022-12-12T19:45:32.856Z,23.80
2022-12-12T19:48:02.790Z,23.52
2022-12-12T19:50:32.596Z,21.90
2022-12-12T19:53:08.210Z,25.08
2022-12-12T19:55:39.770Z,24.00
2022-12-12T19:58:10.562Z,23.50
2022-12-12T20:00:40.323Z,23.17
2022-12-12T20:03:11.501Z,26.70
2022-12-12T20:05:42.345Z,29.40
2022-12-12T20:08:14.765Z,27.23
2022-12-12T20:10:44.605Z,29.90
2022-12-12T20:13:14.321Z,33.47
2022-12-12T20:15:44.175Z,34.55
2022-12-12T20:18:16.693Z,27.65
2022-12-12T20:20:46.545Z,24.45
2022-12-12T20:23:22.178Z,19.73
2022-12-12T20:25:52.107Z,20.48
2022-12-12T20:28:21.905Z,18.15
2022-12-12T20:30:53.532Z,18.20
2022-12-12T20:33:23.479Z,16.63
2022-12-12T20:35:53.288Z,18.80
2022-12-12T20:38:26.794Z,17.90
2022-12-12T20:40:56.607Z,17.95
2022-12-12T20:43:26.558Z,16.88
2022-12-12T20:45:56.453Z,18.63
2022-12-12T20:48:26.235Z,17.80
2022-12-12T20:50:59.960Z,17.80
2022-12-12T20:53:36.371Z,16.98
2022-12-12T20:56:11.029Z,17.67
2022-12-12T20:58:41.819Z,17.65
2022-12-12T21:01:14.083Z,17.98
2022-12-12T21:03:44.501Z,16.60
2022-12-12T21:06:16.590Z,15.82
2022-12-12T21:08:50.603Z,16.10
2022-12-12T21:11:22.509Z,17.00
2022-12-12T21:13:53.299Z,17.45
2022-12-12T21:16:29.911Z,17.35
2022-12-12T21:19:02.108Z,18.17
2022-12-12T21:21:33.173Z,19.17
2022-12-12T21:24:05.924Z,18.10
2022-12-12T21:26:37.409Z,19.30
2022-12-12T21:29:07.715Z,18.92
2022-12-12T21:31:42.326Z,18.67
2022-12-12T21:34:17.637Z,18.70
2022-12-12T21:36:47.488Z,18.20
2022-12-12T21:39:19.954Z,20.15
2022-12-12T21:41:51.271Z,19.00
2022-12-12T21:44:21.734Z,21.05
2022-12-12T21:46:51.698Z,22.73
2022-12-12T21:49:32.014Z,22.05
2022-12-12T21:52:03.432Z,22.42
2022-12-12T21:54:35.936Z,21.70
2022-12-12T21:57:07.764Z,23.17
2022-12-12T21:59:38.851Z,23.35
2022-12-12T22:02:10.676Z,23.20
2022-12-12T22:04:40.521Z,22.80
2022-12-12T22:07:11.926Z,21.05
2022-12-12T22:09:45.058Z,21.27
2022-12-12T22:12:27.602Z,20.52
2022-12-12T22:14:57.401Z,18.70
2022-12-12T22:17:27.244Z,18.70
2022-12-12T22:19:57.488Z,17.63
2022-12-12T22:22:29.023Z,15.55
2022-12-12T22:25:01.403Z,15.77
2022-12-12T22:27:31.204Z,15.73
2022-12-12T22:30:02.088Z,19.35
2022-12-12T22:32:31.992Z,19.05
2022-12-12T22:35:02.797Z,19.75
2022-12-12T22:37:32.661Z,20.05
2022-12-12T22:40:05.090Z,18.88
2022-12-12T22:42:34.869Z,18.55
2022-12-12T22:45:04.759Z,20.17
2022-12-12T22:47:34.612Z,22.00
2022-12-12T22:50:04.515Z,21.15
2022-12-12T22:52:34.376Z,21.40
2022-12-12T22:55:07.543Z,22.35
2022-12-12T22:57:37.407Z,19.52
2022-12-12T23:00:10.533Z,19.92
2022-12-12T23:02:40.363Z,21.15
2022-12-12T23:05:12.812Z,20.48
2022-12-12T23:07:42.996Z,20.80
2022-12-12T23:10:15.435Z,19.50
2022-12-12T23:12:45.209Z,23.15
2022-12-12T23:15:15.211Z,19.73
2022-12-12T23:17:45.168Z,22.05
2022-12-12T23:20:14.969Z,20.67
2022-12-12T23:22:46.495Z,23.98
2022-12-12T23:25:19.150Z,28.35
2022-12-12T23:27:49.981Z,29.92
2022-12-12T23:30:19.927Z,29.27
2022-12-12T23:32:49.749Z,27.35
2022-12-12T23:35:19.713Z,27.85
2022-12-12T23:37:49.558Z,26.75
2022-12-12T23:40:22.004Z,24.10
2022-12-12T23:42:52.842Z,22.98
2022-12-12T23:45:22.674Z,23.45
2022-12-12T23:47:52.437Z,22.90
2022-12-12T23:50:22.378Z,25.13
2022-12-12T23:52:52.204Z,25.90
2022-12-12T23:55:24.585Z,23.23
2022-12-12T23:57:54.502Z,22.05
